Island Tugger — CFH8596 — position and weather

sailwx.info

Track history (hours):
 
Tides and Currents Weather Stations Pressure Air Temp Water Temp Dewpoint Dewpoint Depression Visibility Wind Speed Wind Dir Waves Ship Positions

Island Tugger

Last reported at 2018-Jul-11 19:45 UTC. Time now 2018-Jul-18 14:41 UTC.
Position N 49°18' W 122°59'.

Length 32 m.

Type: Tug. MMSI: 316015269.

Date/timePositionNaut miles runAvg speedWind from/ knotsBaromVisibWave heightAir tempDewpointWater temp
2018-Jul-11 19:45N 49°18' W 122°59'2 8.9
2018-Jul-11 19:30N 49°18' W 123°02'4 7.3
2018-Jul-11 19:00N 49°19' W 123°08'5 9.7
2018-Jul-11 18:30N 49°19' W 123°15'5 9.5
2018-Jul-11 17:59N 49°19' W 123°22'50 9.1
2018-Jul-11 12:32N 49°38' W 124°33'2 9.5
2018-Jul-11 12:16N 49°40' W 124°36'5 9.8
2018-Jul-11 11:44N 49°43' W 124°43'3 9.3
2018-Jul-11 11:27N 49°45' W 124°46'4 9.2
2018-Jul-11 11:00N 49°47' W 124°50'5 9.5
2018-Jul-11 10:30N 49°50' W 124°56'5 9.4
2018-Jul-11 10:00N 49°53' W 125°02'5 9.4
2018-Jul-11 09:30N 49°56' W 125°08'611.4
2018-Jul-11 09:00N 50°01' W 125°13'612.4
2018-Jul-11 08:30N 50°06' W 125°18'510.8
2018-Jul-11 08:00N 50°11' W 125°22'5 9.6
2018-Jul-11 07:30N 50°15' W 125°24'5 9.5
2018-Jul-11 07:00N 50°20' W 125°26'38 9.4
2018-Jul-11 02:55N 50°30' W 126°24'14 7.4
2018-Jul-11 01:04N 50°36' W 126°43'2 9.2
2018-Jul-11 00:51N 50°37' W 126°46'12 9.8
2018-Jul-10 23:39N 50°45' W 126°60'1 9.3
2018-Jul-10 23:29N 50°46' W 127°02'4 9.2
2018-Jul-10 23:00N 50°48' W 127°07'5 9.5
2018-Jul-10 22:30N 50°51' W 127°14'5 9.1
2018-Jul-10 21:59N 50°53' W 127°20'4 8.5
2018-Jul-10 21:30N 50°55' W 127°26'5 9.5
2018-Jul-10 21:00N 50°58' W 127°32'5 9.1
2018-Jul-10 20:30N 51°01' W 127°37'5 9.0
2018-Jul-10 20:00N 51°04' W 127°42'5 9.1
2018-Jul-10 19:30N 51°08' W 127°47'5 9.1
2018-Jul-10 19:00N 51°11' W 127°51'5 9.5
2018-Jul-10 18:30N 51°16' W 127°53'5 9.5
2018-Jul-10 17:58N 51°21' W 127°53'5 9.7
2018-Jul-10 17:29N 51°26' W 127°52'5 9.7
2018-Jul-10 16:59N 51°31' W 127°52'5 9.5
2018-Jul-10 16:30N 51°35' W 127°53'5 9.6
2018-Jul-10 16:00N 51°40' W 127°54'5 9.5
2018-Jul-10 15:30N 51°45' W 127°55'5 9.5
2018-Jul-10 15:00N 51°49' W 127°56'5 9.4
2018-Jul-10 14:30N 51°54' W 127°56'5 9.3
2018-Jul-10 14:00N 51°59' W 127°56'5 9.5
2018-Jul-10 13:30N 52°03' W 127°56'5 9.3
2018-Jul-10 13:00N 52°04' W 128°03'4 7.7
2018-Jul-10 12:30N 52°07' W 128°08'4 7.2
2018-Jul-10 12:00N 52°11' W 128°07'3 6.5
2018-Jul-10 11:30N 52°13' W 128°10'4 9.0
2018-Jul-10 11:00N 52°15' W 128°17'5 9.2
2018-Jul-10 10:30N 52°15' W 128°24'5 9.0
2018-Jul-10 10:00N 52°19' W 128°30'5 9.1
2018-Jul-10 09:30N 52°23' W 128°31'5 9.5
2018-Jul-10 09:00N 52°27' W 128°27'6 9.3
2018-Jul-10 08:24N 52°33' W 128°28'89 8.4
2018-Jul-09 21:49N 53°46' W 129°54'3 9.9
2018-Jul-09 21:30N 53°48' W 129°58'5 9.5
2018-Jul-09 21:00N 53°52' W 130°03'5 9.2
2018-Jul-09 20:30N 53°54' W 130°09'4 8.8
2018-Jul-09 20:00N 53°58' W 130°12'5 9.0
2018-Jul-09 19:30N 54°03' W 130°15'4 8.9
2018-Jul-09 19:00N 54°06' W 130°20'4 8.8
2018-Jul-09 18:30N 54°10' W 130°21'5 9.6
2018-Jul-09 18:00N 54°15' W 130°21'3 5.9
2018-Jul-09 17:30N 54°18' W 130°22'0 0.3
2018-Jul-09 17:00N 54°18' W 130°21'1 3.0
2018-Jul-09 16:30N 54°19' W 130°20'0 0.5
2018-Jul-09 16:00N 54°19' W 130°19'0 0.0
2018-Jul-09 15:31N 54°19' W 130°19'0 0.0
2018-Jul-09 15:00N 54°19' W 130°19'0 0.6
2018-Jul-09 14:30N 54°19' W 130°20'2 3.5
2018-Jul-09 14:00N 54°18' W 130°21'4 7.4
2018-Jul-09 13:30N 54°14' W 130°21'4 7.9
2018-Jul-09 13:00N 54°15' W 130°27'5 9.6
2018-Jul-09 12:30N 54°18' W 130°33'5 9.5
2018-Jul-09 12:00N 54°22' W 130°37'5 9.2
2018-Jul-09 11:30N 54°26' W 130°40'4 8.8
2018-Jul-09 11:00N 54°31' W 130°42'5 8.9
2018-Jul-09 10:30N 54°35' W 130°44'16 8.9
2018-Jul-09 08:43N 54°48' W 130°59'2 9.9
2018-Jul-09 08:30N 54°50' W 131°00'  
2018-Jul-04 04:37N 54°46' W 130°56'1 6.8
2018-Jul-04 04:27N 54°45' W 130°55'3 7.4
2018-Jul-04 04:00N 54°43' W 130°51'4 8.0
2018-Jul-04 03:30N 54°40' W 130°47'4 8.5
2018-Jul-04 02:59N 54°36' W 130°44'510.0
2018-Jul-04 02:29N 54°31' W 130°41'5 9.7
2018-Jul-04 02:00N 54°26' W 130°39'5 9.6
2018-Jul-04 01:30N 54°22' W 130°36'5 9.3
2018-Jul-04 01:00N 54°18' W 130°33'5 9.5
2018-Jul-04 00:30N 54°14' W 130°27'4 7.1
2018-Jul-04 00:00N 54°14' W 130°21'4 7.4
2018-Jul-03 23:30N 54°17' W 130°22'1 2.4
2018-Jul-03 23:00N 54°18' W 130°21'0 0.9
2018-Jul-03 22:30N 54°18' W 130°22'1 2.6
2018-Jul-03 22:00N 54°19' W 130°20'1 1.0
2018-Jul-03 21:30N 54°19' W 130°21'2 4.1
2018-Jul-03 21:00N 54°17' W 130°22'2 4.8
2018-Jul-03 20:30N 54°14' W 130°21'2 3.4
2018-Jul-03 20:00N 54°13' W 130°23'2 4.3
2018-Jul-03 19:30N 54°14' W 130°26'2 3.9
2018-Jul-03 19:00N 54°15' W 130°29'2 3.9
2018-Jul-03 18:30N 54°13' W 130°28'2 3.6
2018-Jul-03 18:00N 54°12' W 130°26'2 4.4
2018-Jul-03 17:30N 54°11' W 130°22'2 3.8
2018-Jul-03 17:00N 54°10' W 130°21'3 5.2
2018-Jul-03 16:30N 54°07' W 130°19'3 5.6
2018-Jul-03 16:00N 54°05' W 130°17'3 6.0
2018-Jul-03 15:30N 54°02' W 130°14'3 5.6
2018-Jul-03 15:00N 53°60' W 130°13'3 6.3
2018-Jul-03 14:30N 53°57' W 130°12'3 5.9
2018-Jul-03 14:00N 53°54' W 130°09'3 6.1
2018-Jul-03 13:30N 53°53' W 130°04'3 5.9
2018-Jul-03 13:00N 53°50' W 130°01'3 5.6
2018-Jul-03 12:30N 53°48' W 129°58'3 5.6
2018-Jul-03 12:00N 53°46' W 129°55'94 5.7
2018-Jul-02 19:32N 52°28' W 128°27'1 7.3
2018-Jul-02 19:20N 52°27' W 128°28'2 6.9
2018-Jul-02 19:00N 52°25' W 128°29'4 7.2
2018-Jul-02 18:30N 52°21' W 128°31'3 6.9
2018-Jul-02 18:00N 52°18' W 128°29'4 7.3
2018-Jul-02 17:26N 52°15' W 128°24'4 7.4
2018-Jul-02 16:56N 52°15' W 128°18'5 7.5
2018-Jul-02 16:19N 52°14' W 128°11'2 7.4
2018-Jul-02 16:00N 52°12' W 128°08'3 6.2
2018-Jul-02 15:30N 52°09' W 128°08'4 7.2
2018-Jul-02 15:00N 52°06' W 128°07'4 7.6
2018-Jul-02 14:28N 52°05' W 128°01'4 8.2
2018-Jul-02 14:00N 52°03' W 127°55'4 8.7
2018-Jul-02 13:30N 51°58' W 127°56'4 8.8
2018-Jul-02 13:00N 51°54' W 127°56'5 9.3
2018-Jul-02 12:30N 51°49' W 127°56'5 9.1
2018-Jul-02 12:00N 51°45' W 127°55'5 9.2
2018-Jul-02 11:30N 51°40' W 127°54'5 9.4
2018-Jul-02 11:00N 51°36' W 127°53'4 8.8
2018-Jul-02 10:30N 51°31' W 127°51'4 9.0
2018-Jul-02 10:00N 51°27' W 127°51'4 8.8
2018-Jul-02 09:30N 51°23' W 127°52'5 9.1
2018-Jul-02 09:00N 51°18' W 127°53'4 9.0
2018-Jul-02 08:30N 51°14' W 127°53'5 8.9
2018-Jul-02 08:00N 51°09' W 127°50'4 8.7
2018-Jul-02 07:30N 51°06' W 127°45'4 9.1
2018-Jul-02 07:00N 51°03' W 127°40'5 9.7
2018-Jul-02 06:30N 50°59' W 127°35'5 9.6
2018-Jul-02 06:00N 50°57' W 127°28'510.3
2018-Jul-02 05:30N 50°54' W 127°22'5 9.8
2018-Jul-02 05:00N 50°51' W 127°15'5 9.4
2018-Jul-02 04:30N 50°49' W 127°09'5 9.6
2018-Jul-02 03:59N 50°46' W 127°03'67 8.6
2018-Jul-01 20:13N 50°20' W 125°26'210.0
2018-Jul-01 20:00N 50°18' W 125°25'  
Track history (hours):
 
Tides and Currents Weather Stations Pressure Air Temp Water Temp Dewpoint Dewpoint Depression Visibility Wind Speed Wind Dir Waves Ship Positions

Island Tugger

Last reported at 2018-Jul-11 19:45 UTC. Time now 2018-Jul-18 14:41 UTC.
Position N 49°18' W 122°59'.

Length 32 m.

Type: Tug. MMSI: 316015269.

Date/timePositionNaut miles runAvg speedWind from/ knotsBaromVisibWave heightAir tempDewpointWater temp
2018-Jul-11 19:45N 49°18' W 122°59'2 8.9
2018-Jul-11 19:30N 49°18' W 123°02'4 7.3
2018-Jul-11 19:00N 49°19' W 123°08'5 9.7
2018-Jul-11 18:30N 49°19' W 123°15'5 9.5
2018-Jul-11 17:59N 49°19' W 123°22'50 9.1
2018-Jul-11 12:32N 49°38' W 124°33'2 9.5
2018-Jul-11 12:16N 49°40' W 124°36'5 9.8
2018-Jul-11 11:44N 49°43' W 124°43'3 9.3
2018-Jul-11 11:27N 49°45' W 124°46'4 9.2
2018-Jul-11 11:00N 49°47' W 124°50'5 9.5
2018-Jul-11 10:30N 49°50' W 124°56'5 9.4
2018-Jul-11 10:00N 49°53' W 125°02'5 9.4
2018-Jul-11 09:30N 49°56' W 125°08'611.4
2018-Jul-11 09:00N 50°01' W 125°13'612.4
2018-Jul-11 08:30N 50°06' W 125°18'510.8
2018-Jul-11 08:00N 50°11' W 125°22'5 9.6
2018-Jul-11 07:30N 50°15' W 125°24'5 9.5
2018-Jul-11 07:00N 50°20' W 125°26'38 9.4
2018-Jul-11 02:55N 50°30' W 126°24'14 7.4
2018-Jul-11 01:04N 50°36' W 126°43'2 9.2
2018-Jul-11 00:51N 50°37' W 126°46'12 9.8
2018-Jul-10 23:39N 50°45' W 126°60'1 9.3
2018-Jul-10 23:29N 50°46' W 127°02'4 9.2
2018-Jul-10 23:00N 50°48' W 127°07'5 9.5
2018-Jul-10 22:30N 50°51' W 127°14'5 9.1
2018-Jul-10 21:59N 50°53' W 127°20'4 8.5
2018-Jul-10 21:30N 50°55' W 127°26'5 9.5
2018-Jul-10 21:00N 50°58' W 127°32'5 9.1
2018-Jul-10 20:30N 51°01' W 127°37'5 9.0
2018-Jul-10 20:00N 51°04' W 127°42'5 9.1
2018-Jul-10 19:30N 51°08' W 127°47'5 9.1
2018-Jul-10 19:00N 51°11' W 127°51'5 9.5
2018-Jul-10 18:30N 51°16' W 127°53'5 9.5
2018-Jul-10 17:58N 51°21' W 127°53'5 9.7
2018-Jul-10 17:29N 51°26' W 127°52'5 9.7
2018-Jul-10 16:59N 51°31' W 127°52'5 9.5
2018-Jul-10 16:30N 51°35' W 127°53'5 9.6
2018-Jul-10 16:00N 51°40' W 127°54'5 9.5
2018-Jul-10 15:30N 51°45' W 127°55'5 9.5
2018-Jul-10 15:00N 51°49' W 127°56'5 9.4
2018-Jul-10 14:30N 51°54' W 127°56'5 9.3
2018-Jul-10 14:00N 51°59' W 127°56'5 9.5
2018-Jul-10 13:30N 52°03' W 127°56'5 9.3
2018-Jul-10 13:00N 52°04' W 128°03'4 7.7
2018-Jul-10 12:30N 52°07' W 128°08'4 7.2
2018-Jul-10 12:00N 52°11' W 128°07'3 6.5
2018-Jul-10 11:30N 52°13' W 128°10'4 9.0
2018-Jul-10 11:00N 52°15' W 128°17'5 9.2
2018-Jul-10 10:30N 52°15' W 128°24'5 9.0
2018-Jul-10 10:00N 52°19' W 128°30'5 9.1
2018-Jul-10 09:30N 52°23' W 128°31'5 9.5
2018-Jul-10 09:00N 52°27' W 128°27'6 9.3
2018-Jul-10 08:24N 52°33' W 128°28'89 8.4
2018-Jul-09 21:49N 53°46' W 129°54'3 9.9
2018-Jul-09 21:30N 53°48' W 129°58'5 9.5
2018-Jul-09 21:00N 53°52' W 130°03'5 9.2
2018-Jul-09 20:30N 53°54' W 130°09'4 8.8
2018-Jul-09 20:00N 53°58' W 130°12'5 9.0
2018-Jul-09 19:30N 54°03' W 130°15'4 8.9
2018-Jul-09 19:00N 54°06' W 130°20'4 8.8
2018-Jul-09 18:30N 54°10' W 130°21'5 9.6
2018-Jul-09 18:00N 54°15' W 130°21'3 5.9
2018-Jul-09 17:30N 54°18' W 130°22'0 0.3
2018-Jul-09 17:00N 54°18' W 130°21'1 3.0
2018-Jul-09 16:30N 54°19' W 130°20'0 0.5
2018-Jul-09 16:00N 54°19' W 130°19'0 0.0
2018-Jul-09 15:31N 54°19' W 130°19'0 0.0
2018-Jul-09 15:00N 54°19' W 130°19'0 0.6
2018-Jul-09 14:30N 54°19' W 130°20'2 3.5
2018-Jul-09 14:00N 54°18' W 130°21'4 7.4
2018-Jul-09 13:30N 54°14' W 130°21'4 7.9
2018-Jul-09 13:00N 54°15' W 130°27'5 9.6
2018-Jul-09 12:30N 54°18' W 130°33'5 9.5
2018-Jul-09 12:00N 54°22' W 130°37'5 9.2
2018-Jul-09 11:30N 54°26' W 130°40'4 8.8
2018-Jul-09 11:00N 54°31' W 130°42'5 8.9
2018-Jul-09 10:30N 54°35' W 130°44'16 8.9
2018-Jul-09 08:43N 54°48' W 130°59'2 9.9
2018-Jul-09 08:30N 54°50' W 131°00'  
2018-Jul-04 04:37N 54°46' W 130°56'1 6.8
2018-Jul-04 04:27N 54°45' W 130°55'3 7.4
2018-Jul-04 04:00N 54°43' W 130°51'4 8.0
2018-Jul-04 03:30N 54°40' W 130°47'4 8.5
2018-Jul-04 02:59N 54°36' W 130°44'510.0
2018-Jul-04 02:29N 54°31' W 130°41'5 9.7
2018-Jul-04 02:00N 54°26' W 130°39'5 9.6
2018-Jul-04 01:30N 54°22' W 130°36'5 9.3
2018-Jul-04 01:00N 54°18' W 130°33'5 9.5
2018-Jul-04 00:30N 54°14' W 130°27'4 7.1
2018-Jul-04 00:00N 54°14' W 130°21'4 7.4
2018-Jul-03 23:30N 54°17' W 130°22'1 2.4
2018-Jul-03 23:00N 54°18' W 130°21'0 0.9
2018-Jul-03 22:30N 54°18' W 130°22'1 2.6
2018-Jul-03 22:00N 54°19' W 130°20'1 1.0
2018-Jul-03 21:30N 54°19' W 130°21'2 4.1
2018-Jul-03 21:00N 54°17' W 130°22'2 4.8
2018-Jul-03 20:30N 54°14' W 130°21'2 3.4
2018-Jul-03 20:00N 54°13' W 130°23'2 4.3
2018-Jul-03 19:30N 54°14' W 130°26'2 3.9
2018-Jul-03 19:00N 54°15' W 130°29'2 3.9
2018-Jul-03 18:30N 54°13' W 130°28'2 3.6
2018-Jul-03 18:00N 54°12' W 130°26'2 4.4
2018-Jul-03 17:30N 54°11' W 130°22'2 3.8
2018-Jul-03 17:00N 54°10' W 130°21'3 5.2
2018-Jul-03 16:30N 54°07' W 130°19'3 5.6
2018-Jul-03 16:00N 54°05' W 130°17'3 6.0
2018-Jul-03 15:30N 54°02' W 130°14'3 5.6
2018-Jul-03 15:00N 53°60' W 130°13'3 6.3
2018-Jul-03 14:30N 53°57' W 130°12'3 5.9
2018-Jul-03 14:00N 53°54' W 130°09'3 6.1
2018-Jul-03 13:30N 53°53' W 130°04'3 5.9
2018-Jul-03 13:00N 53°50' W 130°01'3 5.6
2018-Jul-03 12:30N 53°48' W 129°58'3 5.6
2018-Jul-03 12:00N 53°46' W 129°55'94 5.7
2018-Jul-02 19:32N 52°28' W 128°27'1 7.3
2018-Jul-02 19:20N 52°27' W 128°28'2 6.9
2018-Jul-02 19:00N 52°25' W 128°29'4 7.2
2018-Jul-02 18:30N 52°21' W 128°31'3 6.9
2018-Jul-02 18:00N 52°18' W 128°29'4 7.3
2018-Jul-02 17:26N 52°15' W 128°24'4 7.4
2018-Jul-02 16:56N 52°15' W 128°18'5 7.5
2018-Jul-02 16:19N 52°14' W 128°11'2 7.4
2018-Jul-02 16:00N 52°12' W 128°08'3 6.2
2018-Jul-02 15:30N 52°09' W 128°08'4 7.2
2018-Jul-02 15:00N 52°06' W 128°07'4 7.6
2018-Jul-02 14:28N 52°05' W 128°01'4 8.2
2018-Jul-02 14:00N 52°03' W 127°55'4 8.7
2018-Jul-02 13:30N 51°58' W 127°56'4 8.8
2018-Jul-02 13:00N 51°54' W 127°56'5 9.3
2018-Jul-02 12:30N 51°49' W 127°56'5 9.1
2018-Jul-02 12:00N 51°45' W 127°55'5 9.2
2018-Jul-02 11:30N 51°40' W 127°54'5 9.4
2018-Jul-02 11:00N 51°36' W 127°53'4 8.8
2018-Jul-02 10:30N 51°31' W 127°51'4 9.0
2018-Jul-02 10:00N 51°27' W 127°51'4 8.8
2018-Jul-02 09:30N 51°23' W 127°52'5 9.1
2018-Jul-02 09:00N 51°18' W 127°53'4 9.0
2018-Jul-02 08:30N 51°14' W 127°53'5 8.9
2018-Jul-02 08:00N 51°09' W 127°50'4 8.7
2018-Jul-02 07:30N 51°06' W 127°45'4 9.1
2018-Jul-02 07:00N 51°03' W 127°40'5 9.7
2018-Jul-02 06:30N 50°59' W 127°35'5 9.6
2018-Jul-02 06:00N 50°57' W 127°28'510.3
2018-Jul-02 05:30N 50°54' W 127°22'5 9.8
2018-Jul-02 05:00N 50°51' W 127°15'5 9.4
2018-Jul-02 04:30N 50°49' W 127°09'5 9.6
2018-Jul-02 03:59N 50°46' W 127°03'67 8.6
2018-Jul-01 20:13N 50°20' W 125°26'210.0
2018-Jul-01 20:00N 50°18' W 125°25'  

Dump ship's entire track history